Aeroporto :
LOGIN :

Iscrizione | Disclaimer

   EN    FR    IT 

 










Sommario :    VFR   VFR Marginale   IFR   IFR Intensivo   IFR Molto Intensivo
Visibilità : 
Base nubi : 
>= 8 km
>= 3000ft
5 / 8 km
1000 / 3000 ft
1500m / 5 km
500 / 1000 ft
800 / 1500m
200 / 500 ft
< 800m
< 200 ft
Simboli :   Temporali  Nebbia  Neve Forte  Precipitazioni Forti  Vento > 20 kt
SIGMETs :   Varie  Temporali  Ghiacco  Turbolenza  Onda orograficha  Ceneri Vulcaniche






- Altitudine del aeroporto : 13 ft
- Codice IATA : OST


EBOS - Oostend bruges Int.

ULTIMO METAR :
  • 271620Z 27012KT 9999 FEW020TCU SCT030 14/10 Q1017 NOSIG

METARs OBSOLETI :
  • 271550Z 27010KT 9999 FEW020TCU SCT030 14/10 Q1017 NOSIG
  • 271520Z 27009KT 9999 FEW025TCU SCT048 14/10 Q1017 NOSIG
  • 271450Z 27012KT 9999 -SHRA FEW025TCU BKN045 14/10 Q1017 TEMPO 4000 SHRA
  • 271420Z 26007KT 220V280 9999 FEW025TCU SCT048 16/08 Q1017 TEMPO 4000 SHRA
  • 271350Z 22009KT 9999 FEW025TCU SCT048 16/09 Q1017 TEMPO 4000 SHRA
  • 271320Z 27011KT 9999 -SHRA FEW020TCU SCT030 BKN048 15/11 Q1017 TEMPO 4000 SHRA
  • 271250Z 28012KT 9999 FEW020TCU SCT030 14/10 Q1017 TEMPO 4000 SHRA
  • 271220Z 29010KT 9999 FEW020TCU SCT030 16/11 Q1017 TEMPO 4000 SHRA
  • 271150Z 28008KT 9999 -SHRA FEW019TCU SCT028 BKN040 14/11 Q1017 TEMPO 4000 SHRA

TAF TAF EBOS
Valido dal 27 a 12 ore il 28 a 18 ore UTC


271110Z 2712/2818 26012KT 9999 SCT030
PROB40
TEMPO 2712/2718 4000 SHRA BKN020CB
BECMG 2717/2719 20007KT
PROB30
TEMPO 2810/2818 21015G25KT
PROB40
TEMPO 2812/2818 4000 RA
BECMG 2812/2814 SCT004 BKN007
PROB30
TEMPO 2814/2818 BKN004



MetMap, La meteo Aeronautica in un colpo d'occhio ! - Copyright ORBIFLY Dicembre 2007 - Disclaimer

ORBIFLY MET'MAP TEAM :

Programmazione e sviluppo : Alexandra Zaïnal
Concezione : Baudouin d'Aumeries
Supporto tecnico e logistico : Manuel Goepfert
Aiuto : Marc-Olivier Méhu
Aiuto per la traduzione : Arnaldo La Scala




FONTI E CREDITI :

   NOAA